createdAt,value
2018-07-04T00:01:02.423Z,7.57
2018-07-04T00:03:42.551Z,12.67
2018-07-04T00:06:23.046Z,12.90
2018-07-04T00:09:03.337Z,9.97
2018-07-04T00:11:43.703Z,14.17
2018-07-04T00:14:24.039Z,9.47
2018-07-04T00:16:58.111Z,13.27
2018-07-04T00:19:38.266Z,11.50
2018-07-04T00:22:18.302Z,9.60
2018-07-04T00:24:58.419Z,12.97
2018-07-04T00:27:38.547Z,10.07
2018-07-04T00:30:18.841Z,13.43
2018-07-04T00:32:58.984Z,9.77
2018-07-04T00:35:39.152Z,10.97
2018-07-04T00:38:13.507Z,8.40
2018-07-04T00:40:47.623Z,12.53
2018-07-04T00:43:27.687Z,10.90
2018-07-04T00:46:08.220Z,11.20
2018-07-04T00:48:48.422Z,11.73
2018-07-04T00:51:28.940Z,13.57
2018-07-04T00:54:09.048Z,11.53
2018-07-04T00:56:49.183Z,8.03
2018-07-04T00:59:29.467Z,14.33
2018-07-04T01:02:03.553Z,11.53
2018-07-04T01:04:43.682Z,9.83
2018-07-04T01:07:23.905Z,9.43
2018-07-04T01:10:04.218Z,11.37
2018-07-04T01:12:44.392Z,12.40
2018-07-04T01:15:24.626Z,18.73
2018-07-04T01:18:04.972Z,14.00
2018-07-04T01:20:50.491Z,9.03
2018-07-04T01:23:30.720Z,12.97
2018-07-04T01:26:11.120Z,14.07
2018-07-04T01:28:51.328Z,11.00
2018-07-04T01:31:31.671Z,13.07
2018-07-04T01:34:11.900Z,14.53
2018-07-04T01:36:52.083Z,14.20
2018-07-04T01:39:26.682Z,16.03
2018-07-04T01:42:00.830Z,9.17
2018-07-04T01:44:40.905Z,15.20
2018-07-04T01:47:21.168Z,14.60
2018-07-04T01:50:01.279Z,8.70
2018-07-04T01:52:41.481Z,15.30
2018-07-04T01:55:21.555Z,13.03
2018-07-04T01:58:01.883Z,14.47
2018-07-04T02:00:42.242Z,13.37
2018-07-04T02:03:22.536Z,17.33
2018-07-04T02:06:02.739Z,15.70
2018-07-04T02:08:42.977Z,11.47
2018-07-04T02:11:23.303Z,15.10
2018-07-04T02:14:03.547Z,11.37
2018-07-04T02:16:43.699Z,13.27
2018-07-04T02:19:18.031Z,11.10
2018-07-04T02:21:58.579Z,8.73
2018-07-04T02:24:38.767Z,13.07
2018-07-04T02:27:19.574Z,13.30
2018-07-04T02:29:59.801Z,11.87
2018-07-04T02:32:39.996Z,11.73
2018-07-04T02:35:20.323Z,14.37
2018-07-04T02:38:00.615Z,11.10
2018-07-04T02:40:40.891Z,12.40
2018-07-04T02:43:20.992Z,11.70
2018-07-04T02:46:01.311Z,19.13
2018-07-04T02:48:41.548Z,11.30
2018-07-04T02:51:22.017Z,15.63
2018-07-04T02:53:56.286Z,14.50
2018-07-04T02:56:36.539Z,9.37
2018-07-04T02:59:16.742Z,13.97
2018-07-04T03:01:56.796Z,15.40
2018-07-04T03:04:37.120Z,16.13
2018-07-04T03:07:17.400Z,12.20
2018-07-04T03:09:51.769Z,15.53
2018-07-04T03:12:32.108Z,12.33
2018-07-04T03:15:12.411Z,8.77
2018-07-04T03:17:52.567Z,11.00
2018-07-04T03:20:32.673Z,14.87
2018-07-04T03:23:12.944Z,13.50
2018-07-04T03:25:53.102Z,12.67
2018-07-04T03:28:33.451Z,13.47
2018-07-04T03:31:13.668Z,12.33
2018-07-04T03:33:53.814Z,11.90
2018-07-04T03:36:34.028Z,11.73
2018-07-04T03:39:08.338Z,13.47
2018-07-04T03:41:48.556Z,12.73
2018-07-04T03:44:28.654Z,16.87
2018-07-04T03:47:08.947Z,8.50
2018-07-04T03:49:49.110Z,11.47
2018-07-04T03:52:29.290Z,12.80
2018-07-04T03:55:09.416Z,15.77
2018-07-04T03:57:49.743Z,13.33
2018-07-04T04:00:29.916Z,7.77
2018-07-04T04:03:10.295Z,16.10
2018-07-04T04:05:50.503Z,19.77
2018-07-04T04:08:30.815Z,13.70
2018-07-04T04:11:10.919Z,10.83
2018-07-04T04:13:51.105Z,11.10
2018-07-04T04:16:31.247Z,14.07
2018-07-04T04:19:11.403Z,20.77
2018-07-04T04:21:51.637Z,14.17
2018-07-04T04:24:31.892Z,14.53
2018-07-04T04:27:12.089Z,11.20
2018-07-04T04:29:52.372Z,16.03
2018-07-04T04:32:32.571Z,13.23
2018-07-04T04:35:12.678Z,10.73
2018-07-04T04:37:53.065Z,15.30
2018-07-04T04:40:33.404Z,11.97
2018-07-04T04:43:13.572Z,14.87
2018-07-04T04:45:53.880Z,9.47
2018-07-04T04:48:34.048Z,15.27
2018-07-04T04:51:14.383Z,10.87
2018-07-04T04:53:48.647Z,12.40
2018-07-04T04:56:28.876Z,10.33
2018-07-04T04:59:09.047Z,15.73
2018-07-04T05:01:49.351Z,12.97
2018-07-04T05:04:29.584Z,12.43
2018-07-04T05:07:09.911Z,16.80
2018-07-04T05:09:50.182Z,14.17
2018-07-04T05:12:30.680Z,10.63
2018-07-04T05:15:10.731Z,11.40
2018-07-04T05:17:51.261Z,9.60
2018-07-04T05:20:25.484Z,14.97
2018-07-04T05:23:05.719Z,17.47
2018-07-04T05:25:45.959Z,11.73
2018-07-04T05:28:26.419Z,11.33
2018-07-04T05:31:06.646Z,14.83
2018-07-04T05:33:46.875Z,16.77
2018-07-04T05:36:27.116Z,12.10
2018-07-04T05:39:07.245Z,10.87
2018-07-04T05:41:47.607Z,10.67
2018-07-04T05:44:21.827Z,13.37
2018-07-04T05:46:55.963Z,16.20
2018-07-04T05:49:36.079Z,10.83
2018-07-04T05:52:10.188Z,11.77
2018-07-04T05:54:50.841Z,15.30
2018-07-04T05:57:31.277Z,12.33
2018-07-04T06:00:11.617Z,12.93
2018-07-04T06:02:51.880Z,10.77
2018-07-04T06:05:31.964Z,14.60
2018-07-04T06:08:12.356Z,13.60
2018-07-04T06:10:52.596Z,17.80
2018-07-04T06:13:32.787Z,12.33
2018-07-04T06:16:07.154Z,9.93
2018-07-04T06:18:47.345Z,11.40
2018-07-04T06:21:27.662Z,14.23
2018-07-04T06:24:07.720Z,10.67
2018-07-04T06:26:48.035Z,12.20
2018-07-04T06:29:28.217Z,12.27
2018-07-04T06:32:08.547Z,10.83
2018-07-04T06:34:42.702Z,9.80
2018-07-04T06:37:22.787Z,11.30
2018-07-04T06:39:50.880Z,12.10
2018-07-04T06:42:18.762Z,8.70
2018-07-04T06:44:46.838Z,14.40
2018-07-04T06:47:15.198Z,11.50
2018-07-04T06:49:43.004Z,11.00
2018-07-04T06:52:10.907Z,8.67
2018-07-04T06:54:38.848Z,13.67
2018-07-04T06:57:06.828Z,10.13
2018-07-04T06:59:34.732Z,8.83
2018-07-04T07:02:09.939Z,14.83
2018-07-04T07:04:51.623Z,11.37
2018-07-04T07:07:32.115Z,11.30
2018-07-04T07:10:12.375Z,11.33
2018-07-04T07:12:52.657Z,10.93
2018-07-04T07:15:33.092Z,9.93
2018-07-04T07:18:14.268Z,11.93
2018-07-04T07:20:54.543Z,11.97
2018-07-04T07:23:34.674Z,11.27
2018-07-04T07:26:14.839Z,9.70
2018-07-04T07:28:55.108Z,9.87
2018-07-04T07:31:35.307Z,11.30
2018-07-04T07:34:15.509Z,13.33
2018-07-04T07:36:55.679Z,17.77
2018-07-04T07:39:35.857Z,10.77
2018-07-04T07:42:16.126Z,9.83
2018-07-04T07:44:50.333Z,10.60
2018-07-04T07:47:32.029Z,13.10
2018-07-04T07:50:12.499Z,9.67
2018-07-04T07:52:52.607Z,12.63
2018-07-04T07:55:32.731Z,10.10
2018-07-04T07:58:13.031Z,6.83
2018-07-04T08:00:53.143Z,10.07
2018-07-04T08:03:33.482Z,7.57
2018-07-04T08:06:07.555Z,7.70
2018-07-04T08:08:47.623Z,8.20
2018-07-04T08:11:27.860Z,10.67
2018-07-04T08:14:08.033Z,9.47
2018-07-04T08:16:48.220Z,9.57
2018-07-04T08:19:22.482Z,8.80
2018-07-04T08:22:02.831Z,11.53
2018-07-04T08:24:43.120Z,13.13
2018-07-04T08:27:23.320Z,8.57
2018-07-04T08:30:03.391Z,15.07
2018-07-04T08:32:43.697Z,8.20
2018-07-04T08:35:23.815Z,11.17
2018-07-04T08:38:03.955Z,14.23
2018-07-04T08:40:44.279Z,7.30
2018-07-04T08:43:24.466Z,7.63
2018-07-04T08:46:04.611Z,7.13
2018-07-04T08:48:44.720Z,10.83
2018-07-04T08:51:25.647Z,8.73
2018-07-04T08:54:05.763Z,7.53
2018-07-04T08:56:46.007Z,14.57
2018-07-04T08:59:26.279Z,10.03
2018-07-04T09:02:06.471Z,11.30
2018-07-04T09:04:46.805Z,13.73
2018-07-04T09:07:27.149Z,12.67
2018-07-04T09:10:07.510Z,12.83
2018-07-04T09:12:47.747Z,10.40
2018-07-04T09:15:27.927Z,9.47
2018-07-04T09:18:07.998Z,9.13
2018-07-04T09:22:17.308Z,10.40
2018-07-04T09:24:57.480Z,11.90
2018-07-04T09:27:37.543Z,8.17
2018-07-04T09:30:17.856Z,9.37
2018-07-04T09:32:58.151Z,11.60
2018-07-04T09:35:38.450Z,12.20
2018-07-04T09:38:18.761Z,12.00
2018-07-04T09:40:58.876Z,11.53
2018-07-04T09:43:39.051Z,12.23
2018-07-04T09:46:19.411Z,12.67
2018-07-04T09:48:59.744Z,11.50
2018-07-04T09:51:39.960Z,9.30
2018-07-04T09:54:20.029Z,12.47
2018-07-04T09:57:00.355Z,12.63
2018-07-04T09:59:40.550Z,8.63
2018-07-04T10:02:15.158Z,12.27
2018-07-04T10:04:49.206Z,13.07
2018-07-04T10:07:29.250Z,12.87
2018-07-04T10:10:09.283Z,10.70
2018-07-04T10:12:49.423Z,9.67
2018-07-04T10:15:29.447Z,11.90
2018-07-04T10:18:09.768Z,12.53
2018-07-04T10:20:49.895Z,10.37
2018-07-04T10:23:30.068Z,12.80
2018-07-04T10:26:10.303Z,11.53
2018-07-04T10:28:50.363Z,24.80
2018-07-04T10:31:30.538Z,10.97
2018-07-04T10:34:10.717Z,9.70
2018-07-04T10:36:51.031Z,17.83
2018-07-04T10:39:31.280Z,12.50
2018-07-04T10:42:11.698Z,9.27
2018-07-04T10:44:51.938Z,12.10
2018-07-04T10:47:32.071Z,12.53
2018-07-04T10:50:12.404Z,11.23
2018-07-04T10:52:52.630Z,13.47
2018-07-04T10:55:32.711Z,12.87
2018-07-04T10:58:13.003Z,13.73
2018-07-04T11:00:53.227Z,9.60
2018-07-04T11:03:33.587Z,9.67
2018-07-04T11:06:13.860Z,11.47
2018-07-04T11:08:54.157Z,12.47
2018-07-04T11:11:34.288Z,12.03
2018-07-04T11:14:14.615Z,8.40
2018-07-04T11:16:54.829Z,12.93
2018-07-04T11:19:35.215Z,9.73
2018-07-04T11:22:15.454Z,13.83
2018-07-04T11:24:55.661Z,16.13
2018-07-04T11:27:35.980Z,10.57
2018-07-04T11:30:16.020Z,8.20
2018-07-04T11:32:56.203Z,17.00
2018-07-04T11:35:36.284Z,11.47
2018-07-04T11:38:16.416Z,12.17
2018-07-04T11:40:56.689Z,10.53
2018-07-04T11:43:36.927Z,8.63
2018-07-04T11:46:04.827Z,11.23
2018-07-04T11:48:32.897Z,14.07
2018-07-04T11:51:00.795Z,11.40
2018-07-04T11:53:28.688Z,11.43
2018-07-04T11:55:56.627Z,9.00
2018-07-04T11:58:24.509Z,9.00
2018-07-04T12:00:52.399Z,8.60
2018-07-04T12:03:23.687Z,14.38
2018-07-04T12:06:04.001Z,12.30
2018-07-04T12:08:31.894Z,6.78
2018-07-04T12:10:59.803Z,10.83
2018-07-04T12:13:28.459Z,10.45
2018-07-04T12:15:56.358Z,12.40
2018-07-04T12:18:24.249Z,8.90
2018-07-04T12:20:52.407Z,8.53
2018-07-04T12:23:20.195Z,12.63
2018-07-04T12:25:48.088Z,9.80
2018-07-04T12:28:15.963Z,8.98
2018-07-04T12:30:43.857Z,11.00
2018-07-04T12:33:11.748Z,15.15
2018-07-04T12:35:39.766Z,14.90
2018-07-04T12:38:07.665Z,10.18
2018-07-04T12:40:35.631Z,12.43
2018-07-04T12:43:03.524Z,10.10
2018-07-04T12:45:39.365Z,10.88
2018-07-04T12:47:59.331Z,9.43
2018-07-04T12:50:28.747Z,11.57
2018-07-04T12:52:56.631Z,9.83
2018-07-04T12:55:38.100Z,14.87
2018-07-04T12:58:19.311Z,10.00
2018-07-04T13:00:59.843Z,14.13
2018-07-04T13:03:40.140Z,8.00
2018-07-04T13:06:20.405Z,11.63
2018-07-04T13:09:00.681Z,12.27
2018-07-04T13:11:35.067Z,11.30
2018-07-04T13:14:15.400Z,11.87
2018-07-04T13:16:55.604Z,9.33
2018-07-04T13:19:36.231Z,7.85
2018-07-04T13:22:16.419Z,9.40
2018-07-04T13:24:56.600Z,10.08
2018-07-04T13:27:36.788Z,10.68
2018-07-04T13:30:16.935Z,11.10
2018-07-04T13:32:57.243Z,14.03
2018-07-04T13:35:37.438Z,8.00
2018-07-04T13:38:17.524Z,10.08
2018-07-04T13:40:57.875Z,7.87
2018-07-04T13:43:38.119Z,9.88
2018-07-04T13:46:18.235Z,10.40
2018-07-04T13:48:58.412Z,13.48
2018-07-04T13:51:32.584Z,10.25
2018-07-04T13:54:12.615Z,8.68
2018-07-04T13:56:52.891Z,12.90
2018-07-04T13:59:33.127Z,10.70
2018-07-04T14:02:13.332Z,11.95
2018-07-04T14:04:53.623Z,10.35
2018-07-04T14:07:33.864Z,8.05
2018-07-04T14:10:14.055Z,9.40
2018-07-04T14:12:54.334Z,10.03
2018-07-04T14:15:34.459Z,10.32
2018-07-04T14:18:14.768Z,10.65
2018-07-04T14:20:54.876Z,14.68
2018-07-04T14:23:35.195Z,8.43
2018-07-04T14:26:16.019Z,10.82
2018-07-04T14:28:56.379Z,12.13
2018-07-04T14:31:36.567Z,13.55
2018-07-04T14:34:16.691Z,12.13
2018-07-04T14:36:56.787Z,10.45
2018-07-04T14:39:37.100Z,12.53
2018-07-04T14:42:17.204Z,11.28
2018-07-04T14:44:57.523Z,12.33
2018-07-04T14:47:37.579Z,13.65
2018-07-04T14:50:17.912Z,14.07
2018-07-04T14:52:58.200Z,9.23
2018-07-04T14:55:38.367Z,13.85
2018-07-04T14:58:18.439Z,10.10
2018-07-04T15:00:58.651Z,10.85
2018-07-04T15:03:38.931Z,13.62
2018-07-04T15:06:19.043Z,10.18
2018-07-04T15:08:59.408Z,14.57
2018-07-04T15:11:39.590Z,13.10
2018-07-04T15:14:19.740Z,9.33
2018-07-04T15:18:02.494Z,7.50
2018-07-04T15:20:42.700Z,9.57
2018-07-04T15:23:22.961Z,8.97
2018-07-04T15:26:03.356Z,8.23
2018-07-04T15:28:43.669Z,14.83
2018-07-04T15:31:24.035Z,18.47
2018-07-04T15:34:04.368Z,13.03
2018-07-04T15:36:44.691Z,9.10
2018-07-04T15:39:25.215Z,13.97
2018-07-04T15:42:05.350Z,11.77
2018-07-04T15:44:45.471Z,12.82
2018-07-04T15:47:25.696Z,16.83
2018-07-04T15:49:59.991Z,10.13
2018-07-04T15:52:40.124Z,13.77
2018-07-04T15:55:20.316Z,12.53
2018-07-04T15:58:00.687Z,13.87
2018-07-04T16:00:40.892Z,11.10
2018-07-04T16:03:21.048Z,13.67
2018-07-04T16:06:01.223Z,12.63
2018-07-04T16:08:41.387Z,12.23
2018-07-04T16:11:15.636Z,9.87
2018-07-04T16:13:55.863Z,10.90
2018-07-04T16:16:35.952Z,11.57
2018-07-04T16:19:16.119Z,15.07
2018-07-04T16:21:56.113Z,13.40
2018-07-04T16:24:36.283Z,12.77
2018-07-04T16:27:16.464Z,13.40
2018-07-04T16:29:56.668Z,9.23
2018-07-04T16:32:36.995Z,12.60
2018-07-04T16:35:17.087Z,13.63
2018-07-04T16:37:57.247Z,11.57
2018-07-04T16:40:37.459Z,10.27
2018-07-04T16:43:17.582Z,11.13
2018-07-04T16:45:57.728Z,13.50
2018-07-04T16:48:38.039Z,11.30
2018-07-04T16:51:18.225Z,11.77
2018-07-04T16:53:58.391Z,11.93
2018-07-04T16:56:38.578Z,10.10
2018-07-04T16:59:18.769Z,12.87
2018-07-04T17:01:59.035Z,14.87
2018-07-04T17:04:39.163Z,13.63
2018-07-04T17:07:19.415Z,15.77
2018-07-04T17:10:00.088Z,13.70
2018-07-04T17:12:40.211Z,14.13
2018-07-04T17:15:14.519Z,10.47
2018-07-04T17:17:48.716Z,11.93
2018-07-04T17:20:28.907Z,15.20
2018-07-04T17:23:09.119Z,16.30
2018-07-04T17:25:49.430Z,11.77
2018-07-04T17:28:29.717Z,11.73
2018-07-04T17:31:09.969Z,13.87
2018-07-04T17:33:50.236Z,15.80
2018-07-04T17:36:30.499Z,16.73
2018-07-04T17:39:10.735Z,15.57
2018-07-04T17:41:50.777Z,16.57
2018-07-04T17:44:31.036Z,14.90
2018-07-04T17:47:05.192Z,16.37
2018-07-04T17:49:45.455Z,19.70
2018-07-04T17:52:25.548Z,16.30
2018-07-04T17:55:05.728Z,18.40
2018-07-04T17:57:45.759Z,21.87
2018-07-04T18:00:19.923Z,17.43
2018-07-04T18:03:00.148Z,16.90
2018-07-04T18:05:40.628Z,14.87
2018-07-04T18:08:20.809Z,20.27
2018-07-04T18:11:01.074Z,18.93
2018-07-04T18:13:41.247Z,19.40
2018-07-04T18:16:21.544Z,16.13
2018-07-04T18:19:01.655Z,17.83
2018-07-04T18:21:41.933Z,25.20
2018-07-04T18:24:22.093Z,16.67
2018-07-04T18:27:02.244Z,19.70
2018-07-04T18:29:42.388Z,18.17
2018-07-04T18:32:22.628Z,23.30
2018-07-04T18:35:02.912Z,21.30
2018-07-04T18:37:43.023Z,25.43
2018-07-04T18:40:23.108Z,19.63
2018-07-04T18:43:03.392Z,21.70
2018-07-04T18:45:43.622Z,20.00
2018-07-04T18:48:24.110Z,22.10
2018-07-04T18:51:04.331Z,27.27
2018-07-04T18:53:44.451Z,20.43
2018-07-04T18:56:24.666Z,26.73
2018-07-04T18:59:04.844Z,22.50
2018-07-04T19:01:44.970Z,23.37
2018-07-04T19:04:25.149Z,27.80
2018-07-04T19:07:05.400Z,26.93
2018-07-04T19:09:40.472Z,19.07
2018-07-04T19:12:20.663Z,26.50
2018-07-04T19:15:01.039Z,21.47
2018-07-04T19:17:41.368Z,21.00
2018-07-04T19:20:21.598Z,24.43
2018-07-04T19:23:01.990Z,29.17
2018-07-04T19:25:42.256Z,29.47
2018-07-04T19:28:22.719Z,25.60
2018-07-04T19:31:02.964Z,33.87
2018-07-04T19:33:43.175Z,21.03
2018-07-04T19:36:23.327Z,31.07
2018-07-04T19:39:04.573Z,22.50
2018-07-04T19:41:44.949Z,33.73
2018-07-04T19:44:25.265Z,25.07
2018-07-04T19:47:05.391Z,26.27
2018-07-04T19:49:45.824Z,25.63
2018-07-04T19:52:25.958Z,28.13
2018-07-04T19:55:06.197Z,25.77
2018-07-04T19:57:46.634Z,26.17
2018-07-04T20:00:26.743Z,23.40
2018-07-04T20:03:06.926Z,24.70
2018-07-04T20:05:47.043Z,27.57
2018-07-04T20:08:27.479Z,31.43
2018-07-04T20:11:01.735Z,26.93
2018-07-04T20:13:41.887Z,32.60
2018-07-04T20:16:22.127Z,33.43
2018-07-04T20:19:02.310Z,24.23
2018-07-04T20:21:42.619Z,23.80
2018-07-04T20:24:22.707Z,34.83
2018-07-04T20:27:03.007Z,29.50
2018-07-04T20:29:43.099Z,29.70
2018-07-04T20:32:23.254Z,28.77
2018-07-04T20:35:03.431Z,33.03
2018-07-04T20:37:43.837Z,27.97
2018-07-04T20:40:24.166Z,27.40
2018-07-04T20:43:04.361Z,34.27
2018-07-04T20:45:44.461Z,27.30
2018-07-04T20:48:24.756Z,26.80
2018-07-04T20:51:05.080Z,29.30
2018-07-04T20:53:45.249Z,29.07
2018-07-04T20:56:25.531Z,24.57
2018-07-04T20:59:05.589Z,22.50
2018-07-04T21:01:45.823Z,24.00
2018-07-04T21:04:25.999Z,20.03
2018-07-04T21:07:07.151Z,27.57
2018-07-04T21:09:47.487Z,26.57
2018-07-04T21:12:27.735Z,25.57
2018-07-04T21:15:07.900Z,26.50
2018-07-04T21:17:47.992Z,32.10
2018-07-04T21:20:28.139Z,31.27
2018-07-04T21:23:02.460Z,37.87
2018-07-04T21:25:42.760Z,31.27
2018-07-04T21:28:22.952Z,30.00
2018-07-04T21:31:03.308Z,26.10
2018-07-04T21:33:43.550Z,32.60
2018-07-04T21:36:23.753Z,39.13
2018-07-04T21:39:04.629Z,35.07
2018-07-04T21:41:44.986Z,29.87
2018-07-04T21:44:25.223Z,26.27
2018-07-04T21:47:05.576Z,28.93
2018-07-04T21:49:45.808Z,27.23
2018-07-04T21:52:26.220Z,30.80
2018-07-04T21:55:06.351Z,26.80
2018-07-04T21:57:46.907Z,29.23
2018-07-04T22:00:27.186Z,36.20
2018-07-04T23:25:17.167Z,41.00
2018-07-04T23:27:57.632Z,43.50
2018-07-04T23:30:37.787Z,44.07
2018-07-04T23:33:18.076Z,25.37
2018-07-04T23:35:58.495Z,41.33
2018-07-04T23:38:38.666Z,37.90
2018-07-04T23:41:18.989Z,28.20
2018-07-04T23:43:59.185Z,38.90
2018-07-04T23:46:39.581Z,34.97
2018-07-04T23:49:19.899Z,30.87
2018-07-04T23:52:00.351Z,35.70
2018-07-04T23:54:40.659Z,41.93
2018-07-04T23:57:21.060Z,44.07
